Time;durP1;ratioP1;P1;durP2;ratioP2;P2;SDS_P1;SDS_P2;PMS_P1;PMS_P2;Temp;Humidity;BMP_temperature;BMP_pressure;BME280_temperature;BME280_humidity;BME280_pressure;Samples;Min_cycle;Max_cycle;Signal;HPM_P1;HPM_P2
2023/08/02 00:00:56;;;;;;;5.93;1.90;;;18.70;96.60;;;;;;5013528;28;20522;-72
2023/08/02 00:03:24;;;;;;;6.73;1.80;;;18.70;96.70;;;;;;5013094;28;20963;-71
2023/08/02 00:05:54;;;;;;;5.93;1.60;;;18.70;96.90;;;;;;5014128;28;20501;-72
2023/08/02 00:08:22;;;;;;;4.10;2.17;;;18.70;96.90;;;;;;5013623;28;20443;-72
2023/08/02 00:10:48;;;;;;;4.33;2.10;;;18.60;96.90;;;;;;5013195;28;20900;-71
2023/08/02 00:13:15;;;;;;;5.50;1.33;;;18.60;97.10;;;;;;5013536;28;20451;-71
2023/08/02 00:15:42;;;;;;;1.93;1.67;;;18.60;97.20;;;;;;5012293;28;20538;-71
2023/08/02 00:18:09;;;;;;;4.33;1.50;;;18.60;97.20;;;;;;5013465;28;20455;-71
2023/08/02 00:20:39;;;;;;;4.23;1.93;;;18.60;97.30;;;;;;5018156;28;20470;-72
2023/08/02 00:23:06;;;;;;;6.63;1.87;;;18.70;97.50;;;;;;5013328;28;20964;-71
2023/08/02 00:25:33;;;;;;;4.93;2.17;;;18.60;97.50;;;;;;5014918;28;20495;-71
2023/08/02 00:28:00;;;;;;;6.77;2.07;;;18.60;97.50;;;;;;5025967;28;20462;-72
2023/08/02 00:30:27;;;;;;;9.60;3.10;;;18.50;97.60;;;;;;5018029;28;20478;-71
2023/08/02 00:32:54;;;;;;;4.60;2.00;;;18.50;97.80;;;;;;5015469;28;20960;-71
2023/08/02 00:35:20;;;;;;;4.13;2.20;;;18.50;98.00;;;;;;5015019;28;20447;-71
2023/08/02 00:37:49;;;;;;;4.30;1.63;;;18.50;98.10;;;;;;5013687;28;20447;-71
2023/08/02 00:40:15;;;;;;;6.27;2.20;;;18.50;98.00;;;;;;5013905;28;21042;-71
2023/08/02 00:42:42;;;;;;;6.03;2.03;;;18.50;98.10;;;;;;5013761;28;20451;-71
2023/08/02 00:45:10;;;;;;;4.33;1.77;;;18.50;98.10;;;;;;5013423;28;20486;-71
2023/08/02 00:47:37;;;;;;;6.30;2.20;;;18.50;98.10;;;;;;5013710;28;20450;-71
2023/08/02 00:50:06;;;;;;;3.97;1.90;;;18.50;98.20;;;;;;5014539;28;20474;-71
2023/08/02 00:52:32;;;;;;;6.97;1.73;;;18.50;98.10;;;;;;5016813;28;20941;-71
2023/08/02 00:55:01;;;;;;;7.77;2.30;;;18.50;98.10;;;;;;5016739;28;20458;-71
2023/08/02 00:57:27;;;;;;;6.27;1.73;;;18.50;98.30;;;;;;5016793;28;20448;-71
2023/08/02 00:59:54;;;;;;;5.80;2.80;;;18.40;98.30;;;;;;5016215;28;20470;-71
2023/08/02 01:02:21;;;;;;;6.43;2.30;;;18.50;98.40;;;;;;5017154;28;20482;-71
2023/08/02 01:04:48;;;;;;;7.73;2.63;;;18.40;98.30;;;;;;5016236;28;20446;-71
2023/08/02 01:07:23;;;;;;;5.37;2.83;;;18.40;98.30;;;;;;5016208;28;20952;-71
2023/08/02 01:09:55;;;;;;;5.17;2.00;;;18.40;98.40;;;;;;5016119;28;20434;-72
2023/08/02 01:12:25;;;;;;;9.17;2.40;;;18.40;98.50;;;;;;5016192;28;20840;-72
2023/08/02 01:15:00;;;;;;;8.60;2.30;;;18.40;98.60;;;;;;5016367;28;20523;-71
2023/08/02 01:17:29;;;;;;;6.20;2.33;;;18.40;98.60;;;;;;5016338;28;20423;-71
2023/08/02 01:20:01;;;;;;;10.67;2.50;;;18.40;98.70;;;;;;5016159;28;20463;-71
2023/08/02 01:22:28;;;;;;;6.43;2.53;;;18.40;98.70;;;;;;5016072;28;20443;-72
2023/08/02 01:24:56;;;;;;;6.10;2.33;;;18.40;98.70;;;;;;5016182;28;20792;-71
2023/08/02 01:27:26;;;;;;;6.40;2.40;;;18.50;98.80;;;;;;5015805;28;20879;-71
2023/08/02 01:29:55;;;;;;;4.53;2.77;;;18.50;98.90;;;;;;5015593;28;20983;-71
2023/08/02 01:32:24;;;;;;;5.67;2.40;;;18.50;98.80;;;;;;5016221;28;20448;-72
2023/08/02 01:34:52;;;;;;;3.90;2.20;;;18.50;98.80;;;;;;5014805;28;20450;-71
2023/08/02 01:37:20;;;;;;;6.67;2.70;;;18.50;98.80;;;;;;5015985;28;20443;-71
2023/08/02 01:39:47;;;;;;;7.30;2.97;;;18.60;98.80;;;;;;5015818;28;20447;-72
2023/08/02 01:42:15;;;;;;;9.10;3.17;;;18.50;98.70;;;;;;5014623;28;20444;-71
2023/08/02 01:44:42;;;;;;;8.50;2.87;;;18.50;98.90;;;;;;5016015;28;20447;-71
2023/08/02 01:47:08;;;;;;;7.47;3.10;;;18.50;98.90;;;;;;5015573;28;20525;-71
2023/08/02 01:49:35;;;;;;;9.63;3.03;;;18.50;98.90;;;;;;5016097;28;20444;-72
2023/08/02 01:52:02;;;;;;;5.47;2.43;;;18.60;99.00;;;;;;5015783;28;20447;-71
2023/08/02 01:54:30;;;;;;;6.43;2.33;;;18.60;98.90;;;;;;5014420;28;20937;-71
2023/08/02 01:56:57;;;;;;;3.83;2.60;;;18.60;98.90;;;;;;5015538;28;20448;-72
2023/08/02 01:59:24;;;;;;;5.90;2.90;;;18.60;98.80;;;;;;5015492;28;20444;-72
2023/08/02 02:01:50;;;;;;;4.53;2.13;;;18.60;98.70;;;;;;5014830;28;20466;-71
2023/08/02 02:04:17;;;;;;;5.87;2.57;;;18.60;98.80;;;;;;5015305;28;20443;-72
2023/08/02 02:06:44;;;;;;;4.30;2.37;;;18.60;98.80;;;;;;5015344;28;20486;-71
2023/08/02 02:09:11;;;;;;;4.93;2.50;;;18.60;98.90;;;;;;5013666;28;20891;-71
2023/08/02 02:11:39;;;;;;;5.13;2.67;;;18.60;99.00;;;;;;5014668;28;21031;-72
2023/08/02 02:14:06;;;;;;;5.03;2.13;;;18.60;99.00;;;;;;5014550;28;20451;-71
2023/08/02 02:16:32;;;;;;;5.13;3.27;;;18.60;98.90;;;;;;5015056;28;20439;-71
2023/08/02 02:18:59;;;;;;;6.83;2.90;;;18.60;98.80;;;;;;5015108;28;20533;-71
2023/08/02 02:21:26;;;;;;;6.77;2.87;;;18.60;98.90;;;;;;5014795;28;20483;-71
2023/08/02 02:23:53;;;;;;;19.37;3.23;;;18.60;98.80;;;;;;5015264;28;20449;-69
2023/08/02 02:26:20;;;;;;;6.10;2.60;;;18.60;98.80;;;;;;5014651;28;20490;-70
2023/08/02 02:28:47;;;;;;;4.00;2.50;;;18.50;98.70;;;;;;5014840;28;20453;-70
2023/08/02 02:31:13;;;;;;;3.57;2.40;;;18.60;98.80;;;;;;5014368;28;20651;-71
2023/08/02 02:33:40;;;;;;;5.53;2.47;;;18.60;98.90;;;;;;5014669;28;20451;-71
2023/08/02 02:36:07;;;;;;;5.80;2.70;;;18.60;98.70;;;;;;5014761;28;20791;-71
2023/08/02 02:38:34;;;;;;;6.03;2.90;;;18.60;98.70;;;;;;5014351;28;20958;-71
2023/08/02 02:41:00;;;;;;;6.93;2.73;;;18.60;98.70;;;;;;5014197;28;21078;-71
2023/08/02 02:43:27;;;;;;;4.63;2.60;;;18.60;98.70;;;;;;5023581;28;20459;-71
2023/08/02 02:45:55;;;;;;;10.33;2.73;;;18.60;98.60;;;;;;5022293;28;20487;-71
2023/08/02 02:48:22;;;;;;;4.37;2.40;;;18.60;98.60;;;;;;5019533;28;20470;-71
2023/08/02 02:50:49;;;;;;;7.53;3.27;;;18.60;98.70;;;;;;5017299;28;20463;-71
2023/08/02 02:53:16;;;;;;;4.27;2.53;;;18.70;98.70;;;;;;5015932;28;20548;-71
2023/08/02 02:55:43;;;;;;;4.20;2.60;;;18.70;98.60;;;;;;5015738;28;20443;-71
2023/08/02 02:58:09;;;;;;;4.87;2.60;;;18.70;98.60;;;;;;5015020;28;20447;-71
2023/08/02 03:00:36;;;;;;;3.47;2.90;;;18.70;98.60;;;;;;5014729;28;20980;-71
2023/08/02 03:03:04;;;;;;;4.63;2.50;;;18.70;98.40;;;;;;5014624;28;20450;-71
2023/08/02 03:05:31;;;;;;;6.60;2.93;;;18.70;98.20;;;;;;5014330;28;20860;-71
2023/08/02 03:07:58;;;;;;;5.67;2.50;;;18.70;98.20;;;;;;5016513;28;20852;-71
2023/08/02 03:10:25;;;;;;;6.43;3.03;;;18.70;98.10;;;;;;5018169;28;20467;-71
2023/08/02 03:12:52;;;;;;;3.93;2.50;;;18.70;98.10;;;;;;5014416;28;21118;-71
2023/08/02 03:15:19;;;;;;;6.00;2.57;;;18.70;98.20;;;;;;5014283;28;20454;-71
2023/08/02 03:17:45;;;;;;;4.30;2.57;;;18.70;98.20;;;;;;5013274;28;20483;-71
2023/08/02 03:20:13;;;;;;;4.33;2.17;;;18.60;98.20;;;;;;5013696;28;20475;-71
2023/08/02 03:22:40;;;;;;;6.80;2.47;;;18.60;98.30;;;;;;5012602;28;20956;-71
2023/08/02 03:25:07;;;;;;;5.73;2.63;;;18.60;98.40;;;;;;5014116;28;20447;-71
2023/08/02 03:27:34;;;;;;;3.77;2.40;;;18.50;98.50;;;;;;5014088;28;20499;-71
2023/08/02 03:30:01;;;;;;;1.50;1.40;;;18.50;98.70;;;;;;5014123;28;20513;-71
2023/08/02 03:32:28;;;;;;;3.90;1.77;;;18.40;98.90;;;;;;5013538;28;20443;-71
2023/08/02 03:34:55;;;;;;;3.60;1.50;;;18.30;99.10;;;;;;5013588;28;20443;-71
2023/08/02 03:37:23;;;;;;;1.80;1.10;;;18.30;99.30;;;;;;5013795;28;20848;-71
2023/08/02 03:39:50;;;;;;;4.50;1.67;;;18.30;99.30;;;;;;5013966;28;20452;-71
2023/08/02 03:42:16;;;;;;;1.47;1.30;;;18.30;99.40;;;;;;5014458;28;20458;-71
2023/08/02 03:44:43;;;;;;;3.37;1.83;;;18.20;99.50;;;;;;5013824;28;20444;-71
2023/08/02 03:47:10;;;;;;;3.47;1.57;;;18.20;99.60;;;;;;5013755;28;20506;-71
2023/08/02 03:49:37;;;;;;;3.00;1.70;;;18.20;99.80;;;;;;5013502;28;20458;-71
2023/08/02 03:52:04;;;;;;;1.33;1.23;;;18.10;99.80;;;;;;5013708;28;20454;-71
2023/08/02 03:54:32;;;;;;;1.47;1.37;;;18.10;99.90;;;;;;5012534;28;20443;-71
2023/08/02 03:56:59;;;;;;;2.80;1.27;;;18.10;99.90;;;;;;5013635;28;20451;-71
2023/08/02 03:59:26;;;;;;;2.20;1.57;;;18.10;99.90;;;;;;5012411;28;20470;-71
2023/08/02 04:01:53;;;;;;;2.40;1.57;;;18.10;99.90;;;;;;5013307;28;20470;-71
2023/08/02 04:04:20;;;;;;;2.80;1.53;;;18.10;99.90;;;;;;5013685;28;20439;-71
2023/08/02 04:06:47;;;;;;;3.07;1.40;;;18.10;99.90;;;;;;5014091;28;20479;-71
2023/08/02 04:09:14;;;;;;;2.03;1.13;;;18.00;99.90;;;;;;5013550;28;20941;-71
2023/08/02 04:11:42;;;;;;;2.37;1.60;;;18.10;99.90;;;;;;5013364;28;21004;-71
2023/08/02 04:14:08;;;;;;;1.60;1.30;;;18.00;99.90;;;;;;5013624;28;20446;-70
2023/08/02 04:16:35;;;;;;;4.43;1.93;;;18.00;99.90;;;;;;5012079;28;20471;-71
2023/08/02 04:19:02;;;;;;;3.70;1.30;;;18.00;99.90;;;;;;5013450;28;20450;-71
2023/08/02 04:21:28;;;;;;;2.00;1.70;;;18.10;99.90;;;;;;5013467;28;20471;-71
2023/08/02 04:23:55;;;;;;;1.90;1.50;;;18.00;99.90;;;;;;5013751;28;20456;-70
2023/08/02 04:26:22;;;;;;;5.37;1.60;;;18.00;99.90;;;;;;5015814;28;20931;-71
2023/08/02 04:28:50;;;;;;;2.80;1.40;;;18.00;99.90;;;;;;5022043;28;20432;-71
2023/08/02 04:31:17;;;;;;;3.23;1.97;;;18.00;99.90;;;;;;5024021;28;20816;-71
2023/08/02 04:33:44;;;;;;;1.87;1.57;;;18.00;99.90;;;;;;5022984;28;20451;-71
2023/08/02 04:36:11;;;;;;;2.53;1.47;;;18.10;99.90;;;;;;5020098;28;20478;-71
2023/08/02 04:38:37;;;;;;;2.60;2.07;;;18.10;99.90;;;;;;5021984;28;20470;-71
2023/08/02 04:41:05;;;;;;;3.37;2.03;;;18.10;99.90;;;;;;5021175;28;21010;-71
2023/08/02 04:43:31;;;;;;;2.77;1.53;;;18.10;99.90;;;;;;5019388;28;20459;-71
2023/08/02 04:45:59;;;;;;;2.40;2.03;;;18.10;99.90;;;;;;5019304;28;20450;-70
2023/08/02 04:48:26;;;;;;;2.93;1.97;;;18.20;99.90;;;;;;5019765;28;20455;-71
2023/08/02 04:50:53;;;;;;;2.73;2.10;;;18.10;99.90;;;;;;5018540;28;20484;-70
2023/08/02 04:53:19;;;;;;;4.03;2.53;;;18.20;99.90;;;;;;5017971;28;20451;-70
2023/08/02 04:55:46;;;;;;;3.53;2.30;;;18.20;99.90;;;;;;5017921;28;20443;-71
2023/08/02 04:58:13;;;;;;;4.40;2.53;;;18.20;99.90;;;;;;5018329;28;20442;-70
2023/08/02 05:00:40;;;;;;;3.83;2.93;;;18.20;99.90;;;;;;5027092;28;20482;-70
2023/08/02 05:03:08;;;;;;;3.63;2.30;;;18.20;99.90;;;;;;5024749;28;20455;-70
2023/08/02 05:05:35;;;;;;;4.40;2.73;;;18.20;99.90;;;;;;5021372;28;20825;-70
2023/08/02 05:08:02;;;;;;;2.63;2.30;;;18.30;99.90;;;;;;5019279;28;20482;-70
2023/08/02 05:10:28;;;;;;;2.80;2.40;;;18.30;99.90;;;;;;5019285;28;20511;-71
2023/08/02 05:12:55;;;;;;;5.57;2.40;;;18.30;99.90;;;;;;5018358;28;20458;-71
2023/08/02 05:15:22;;;;;;;4.00;1.93;;;18.30;99.90;;;;;;5019326;28;20452;-71
2023/08/02 05:17:49;;;;;;;2.80;2.50;;;18.40;99.90;;;;;;5017891;28;20444;-71
2023/08/02 05:20:17;;;;;;;3.70;2.83;;;18.40;99.90;;;;;;5016281;28;20467;-71
2023/08/02 05:22:44;;;;;;;3.40;3.10;;;18.40;99.90;;;;;;5017076;28;20455;-71
2023/08/02 05:25:11;;;;;;;4.03;2.80;;;18.50;99.90;;;;;;5016884;28;20451;-71
2023/08/02 05:27:38;;;;;;;6.50;3.60;;;18.50;99.90;;;;;;5016602;28;20518;-71
2023/08/02 05:30:06;;;;;;;3.30;3.00;;;18.60;99.90;;;;;;5016326;28;20973;-71
2023/08/02 05:32:33;;;;;;;3.93;3.10;;;18.60;99.90;;;;;;5016980;28;20486;-71
2023/08/02 05:35:00;;;;;;;7.17;3.37;;;18.60;99.90;;;;;;5016164;28;20451;-70
2023/08/02 05:37:30;;;;;;;5.80;3.27;;;18.60;99.90;;;;;;5015515;28;20479;-71
2023/08/02 05:39:57;;;;;;;5.83;3.50;;;18.60;99.90;;;;;;5016543;28;20881;-70
2023/08/02 05:42:24;;;;;;;7.57;3.40;;;18.60;99.90;;;;;;5016096;28;20494;-70
2023/08/02 05:44:51;;;;;;;5.70;3.80;;;18.60;99.90;;;;;;5016312;28;20443;-70
2023/08/02 05:47:17;;;;;;;9.33;4.50;;;18.50;99.90;;;;;;5015805;28;20475;-70
2023/08/02 05:49:44;;;;;;;4.67;3.70;;;18.50;99.90;;;;;;5016212;28;20451;-70
2023/08/02 05:52:11;;;;;;;4.10;3.43;;;18.60;99.90;;;;;;5015854;28;20451;-70
2023/08/02 05:54:39;;;;;;;5.77;3.53;;;18.60;99.90;;;;;;5015978;28;20451;-70
2023/08/02 05:57:06;;;;;;;6.90;4.60;;;18.60;99.90;;;;;;5021222;28;20435;-70
2023/08/02 05:59:33;;;;;;;6.47;3.90;;;18.50;99.90;;;;;;5016086;28;20451;-71
2023/08/02 06:02:00;;;;;;;8.87;3.70;;;18.50;99.90;;;;;;5015662;28;20960;-70
2023/08/02 06:04:27;;;;;;;7.93;4.40;;;18.50;99.90;;;;;;5015524;28;20466;-70
2023/08/02 06:06:54;;;;;;;4.40;3.50;;;18.50;99.90;;;;;;5015581;28;20878;-70
2023/08/02 06:09:21;;;;;;;4.10;3.60;;;18.50;99.90;;;;;;5015782;28;20446;-70
2023/08/02 06:11:49;;;;;;;5.10;3.70;;;18.40;99.90;;;;;;5015837;28;20512;-70
2023/08/02 06:14:15;;;;;;;8.53;3.60;;;18.40;99.90;;;;;;5015549;28;20447;-70
2023/08/02 06:16:42;;;;;;;6.87;4.10;;;18.40;99.90;;;;;;5015559;28;20444;-70
2023/08/02 06:19:09;;;;;;;11.03;3.07;;;18.30;99.90;;;;;;5015451;28;20451;-70
2023/08/02 06:21:37;;;;;;;6.80;3.70;;;18.30;99.90;;;;;;5015261;28;20475;-70
2023/08/02 06:24:03;;;;;;;6.77;3.40;;;18.30;99.90;;;;;;5014890;28;20821;-70
2023/08/02 06:26:30;;;;;;;4.70;3.83;;;18.20;99.90;;;;;;5015250;28;20470;-70
2023/08/02 06:29:00;;;;;;;6.30;3.90;;;18.20;99.90;;;;;;5014950;28;20443;-71
2023/08/02 06:31:26;;;;;;;4.03;3.10;;;18.20;99.90;;;;;;5015162;28;20471;-70
2023/08/02 06:33:53;;;;;;;4.80;3.50;;;18.30;99.90;;;;;;5014848;28;20450;-70
2023/08/02 06:36:20;;;;;;;7.43;4.40;;;18.30;99.90;;;;;;5014863;28;20447;-70
2023/08/02 06:38:48;;;;;;;6.00;3.77;;;18.30;99.90;;;;;;5014574;28;21007;-70
2023/08/02 06:41:14;;;;;;;6.50;3.47;;;18.30;99.90;;;;;;5015036;28;20470;-70
2023/08/02 06:43:42;;;;;;;3.90;3.50;;;18.30;99.90;;;;;;5014802;28;20451;-70
2023/08/02 06:46:10;;;;;;;4.20;3.40;;;18.30;99.90;;;;;;5014664;28;20439;-70
2023/08/02 06:48:37;;;;;;;10.23;3.23;;;18.40;99.90;;;;;;5014622;28;20846;-70
2023/08/02 06:51:04;;;;;;;3.77;3.30;;;18.40;99.90;;;;;;5014633;28;20474;-70
2023/08/02 06:53:30;;;;;;;4.10;3.23;;;18.40;99.90;;;;;;5014136;28;20452;-70
2023/08/02 06:55:58;;;;;;;4.40;3.07;;;18.50;99.90;;;;;;5014641;28;20443;-70
2023/08/02 06:58:25;;;;;;;3.67;3.13;;;18.60;99.90;;;;;;5013472;28;20439;-70
2023/08/02 07:00:51;;;;;;;3.77;2.63;;;18.60;99.90;;;;;;5014745;28;20471;-70
2023/08/02 07:03:21;;;;;;;3.70;3.40;;;18.70;99.90;;;;;;5013180;28;20466;-70
2023/08/02 07:05:48;;;;;;;8.87;3.50;;;18.80;99.90;;;;;;5014359;28;20451;-70
2023/08/02 07:08:15;;;;;;;3.40;3.10;;;18.80;99.90;;;;;;5014282;28;20501;-70
2023/08/02 07:10:42;;;;;;;3.70;3.10;;;18.90;99.90;;;;;;5014080;28;20855;-70
2023/08/02 07:13:08;;;;;;;3.60;3.10;;;19.10;99.90;;;;;;5014302;28;20443;-69
2023/08/02 07:15:35;;;;;;;3.50;2.90;;;19.00;99.90;;;;;;5015911;28;20455;-70
2023/08/02 07:18:02;;;;;;;3.57;3.20;;;19.10;99.90;;;;;;5027194;28;20960;-70
2023/08/02 07:20:30;;;;;;;4.90;3.87;;;19.10;99.90;;;;;;5019117;28;21063;-70
2023/08/02 07:22:57;;;;;;;3.93;3.60;;;19.20;99.90;;;;;;5016589;28;20444;-70
2023/08/02 07:25:24;;;;;;;4.30;3.53;;;19.20;99.90;;;;;;5015192;28;20940;-70
2023/08/02 07:27:50;;;;;;;6.30;3.40;;;19.20;99.90;;;;;;5014100;28;20483;-70
2023/08/02 07:30:17;;;;;;;4.37;2.80;;;19.20;99.90;;;;;;5014991;28;20464;-70
2023/08/02 07:32:44;;;;;;;7.13;4.07;;;19.30;99.90;;;;;;5014496;28;20956;-70
2023/08/02 07:35:11;;;;;;;4.50;3.03;;;19.50;99.90;;;;;;5014249;28;20451;-70
2023/08/02 07:37:39;;;;;;;3.43;3.00;;;19.60;99.90;;;;;;5013964;28;20440;-71
2023/08/02 07:40:07;;;;;;;3.17;2.90;;;19.70;99.90;;;;;;5013922;28;20838;-70
2023/08/02 07:42:34;;;;;;;3.77;3.37;;;19.90;99.90;;;;;;5013929;28;21054;-70
2023/08/02 07:45:06;;;;;;;6.27;3.00;;;20.10;99.90;;;;;;5013883;28;20456;-70
2023/08/02 07:47:33;;;;;;;4.77;2.60;;;20.20;99.90;;;;;;5013875;28;20483;-70
2023/08/02 07:49:59;;;;;;;2.70;2.23;;;20.20;99.90;;;;;;5013893;28;20873;-70
2023/08/02 07:52:26;;;;;;;3.70;2.40;;;20.30;99.90;;;;;;5013808;28;20451;-70
2023/08/02 07:54:55;;;;;;;3.03;2.10;;;20.40;99.90;;;;;;5013850;28;20471;-70
2023/08/02 07:57:22;;;;;;;3.00;2.00;;;20.40;99.90;;;;;;5013950;28;20447;-70
2023/08/02 07:59:49;;;;;;;3.57;2.57;;;20.40;99.90;;;;;;5014795;28;20451;-70
2023/08/02 08:02:16;;;;;;;2.57;1.93;;;20.30;99.90;;;;;;5017837;28;20469;-70
2023/08/02 08:04:43;;;;;;;3.27;2.30;;;20.30;99.90;;;;;;5017888;28;20447;-70
2023/08/02 08:07:09;;;;;;;2.70;1.50;;;20.30;99.90;;;;;;5017981;28;20447;-70
2023/08/02 08:09:36;;;;;;;2.70;2.17;;;20.20;99.90;;;;;;5017790;28;20454;-70
2023/08/02 08:12:06;;;;;;;2.20;1.57;;;20.10;99.90;;;;;;5017607;28;20467;-70
2023/08/02 08:14:34;;;;;;;1.73;1.57;;;20.20;99.90;;;;;;5017843;28;20447;-70
2023/08/02 08:17:01;;;;;;;2.57;1.83;;;20.20;99.90;;;;;;5017399;28;20458;-70
2023/08/02 08:19:29;;;;;;;1.53;1.43;;;20.30;99.90;;;;;;5016323;28;20475;-70
2023/08/02 08:21:55;;;;;;;1.40;1.10;;;20.30;99.90;;;;;;5017290;28;20508;-70
2023/08/02 08:24:22;;;;;;;1.23;1.13;;;20.20;99.90;;;;;;5017455;28;20443;-70
2023/08/02 08:26:50;;;;;;;1.20;1.10;;;20.20;99.90;;;;;;5016946;28;20929;-70
2023/08/02 08:29:18;;;;;;;4.40;1.07;;;20.20;99.90;;;;;;5016905;28;20853;-71
2023/08/02 08:31:47;;;;;;;4.70;1.00;;;20.20;99.90;;;;;;5017106;28;20513;-70
2023/08/02 08:34:14;;;;;;;1.97;1.13;;;20.10;99.90;;;;;;5016615;28;20505;-71
2023/08/02 08:36:41;;;;;;;1.27;0.90;;;20.20;99.90;;;;;;5017211;28;20441;-71
2023/08/02 08:39:07;;;;;;;1.00;0.90;;;20.20;99.90;;;;;;5017035;28;20454;-71
2023/08/02 08:41:34;;;;;;;0.70;0.63;;;20.20;99.90;;;;;;5017183;28;20509;-71
2023/08/02 08:44:01;;;;;;;1.10;0.70;;;20.20;99.90;;;;;;5017851;28;20478;-70
2023/08/02 08:46:32;;;;;;;1.40;0.70;;;20.20;99.90;;;;;;5025579;28;20443;-71
2023/08/02 08:48:59;;;;;;;1.13;1.03;;;20.30;99.90;;;;;;5017998;28;20503;-70
2023/08/02 08:51:27;;;;;;;1.87;1.10;;;20.40;99.90;;;;;;5017208;28;20467;-70
2023/08/02 08:53:55;;;;;;;8.10;0.90;;;20.40;99.90;;;;;;5016387;28;20545;-70
2023/08/02 08:56:24;;;;;;;2.07;1.00;;;20.50;99.90;;;;;;5016425;28;20447;-71
2023/08/02 08:58:53;;;;;;;0.50;0.47;;;20.50;99.90;;;;;;5016671;28;20467;-70
2023/08/02 09:01:21;;;;;;;0.80;0.40;;;20.50;99.90;;;;;;5016516;28;20537;-71
2023/08/02 09:03:49;;;;;;;1.00;0.50;;;20.50;99.90;;;;;;5016446;28;20503;-71
2023/08/02 09:06:16;;;;;;;0.60;0.40;;;20.40;99.90;;;;;;5016185;28;20451;-70
2023/08/02 09:08:45;;;;;;;0.97;0.53;;;20.40;99.90;;;;;;5016402;28;20483;-70
2023/08/02 09:11:12;;;;;;;2.77;0.43;;;20.40;99.90;;;;;;5013895;28;20470;-71
2023/08/02 09:13:39;;;;;;;0.50;0.50;;;20.50;99.90;;;;;;5015231;28;20443;-71
2023/08/02 09:16:07;;;;;;;0.90;0.53;;;20.60;99.90;;;;;;5016263;28;20451;-72
2023/08/02 09:18:38;;;;;;;1.70;0.57;;;20.80;99.90;;;;;;5016097;28;20995;-71
2023/08/02 09:21:07;;;;;;;0.97;0.40;;;20.90;99.90;;;;;;5016160;28;20475;-71
2023/08/02 09:23:34;;;;;;;0.80;0.40;;;20.90;99.90;;;;;;5016183;28;20474;-71
2023/08/02 09:26:13;;;;;;;1.57;0.40;;;21.00;99.90;;;;;;5016167;28;20933;-72
2023/08/02 09:28:40;;;;;;;2.00;0.43;;;21.20;99.90;;;;;;5016592;28;20474;-71
2023/08/02 09:31:17;;;;;;;1.40;0.50;;;21.30;99.90;;;;;;5028891;28;20467;-72
2023/08/02 09:33:50;;;;;;;0.50;0.50;;;21.50;99.90;;;;;;5022161;28;20445;-71
2023/08/02 09:36:28;;;;;;;1.37;0.30;;;21.60;99.90;;;;;;5018725;28;20474;-71
2023/08/02 09:39:01;;;;;;;0.40;0.30;;;21.50;99.90;;;;;;5018681;28;20428;-71
2023/08/02 09:41:28;;;;;;;0.40;0.27;;;21.50;99.90;;;;;;5017823;28;20471;-71
2023/08/02 09:43:55;;;;;;;0.40;0.30;;;21.40;99.90;;;;;;5016611;28;20449;-71
2023/08/02 09:46:30;;;;;;;0.70;0.40;;;21.40;99.90;;;;;;5015965;28;20447;-71
2023/08/02 09:48:57;;;;;;;1.00;0.20;;;21.30;99.90;;;;;;5016333;28;20659;-71
2023/08/02 09:51:39;;;;;;;0.50;0.40;;;21.40;99.90;;;;;;5015970;28;20495;-71
2023/08/02 09:54:06;;;;;;;1.53;0.37;;;21.50;99.90;;;;;;5016103;28;20466;-71
2023/08/02 09:56:35;;;;;;;3.13;0.40;;;21.50;99.90;;;;;;5015066;28;20455;-71
2023/08/02 09:59:04;;;;;;;1.57;0.50;;;21.40;99.90;;;;;;5016333;28;20451;-72
2023/08/02 10:01:32;;;;;;;0.50;0.30;;;21.40;99.90;;;;;;5015903;28;20477;-70
2023/08/02 10:04:00;;;;;;;1.23;0.33;;;21.30;99.90;;;;;;5015725;28;20470;-70
2023/08/02 10:06:30;;;;;;;2.70;0.40;;;21.30;99.90;;;;;;5015993;28;20450;-69
2023/08/02 10:09:04;;;;;;;0.40;0.30;;;21.30;99.90;;;;;;5016199;28;20486;-69
2023/08/02 10:11:34;;;;;;;0.87;0.40;;;21.20;99.90;;;;;;5016474;28;20501;-69
2023/08/02 10:14:02;;;;;;;0.70;0.40;;;21.20;99.90;;;;;;5016320;28;20551;-69
2023/08/02 10:16:30;;;;;;;0.50;0.30;;;21.30;99.90;;;;;;5016811;28;20447;-69
2023/08/02 10:18:59;;;;;;;0.40;0.40;;;21.40;99.90;;;;;;5016097;28;20451;-69
2023/08/02 10:21:26;;;;;;;0.50;0.40;;;21.70;99.90;;;;;;5015579;28;20478;-69
2023/08/02 10:23:53;;;;;;;0.57;0.40;;;22.00;99.90;;;;;;5015058;28;20454;-69
2023/08/02 10:26:22;;;;;;;0.40;0.30;;;22.50;99.90;;;;;;5015907;28;20832;-69
2023/08/02 10:28:50;;;;;;;0.43;0.20;;;22.90;99.90;;;;;;5016418;28;20494;-69
2023/08/02 10:31:17;;;;;;;0.50;0.30;;;23.10;99.90;;;;;;5016707;28;20809;-70
2023/08/02 10:33:44;;;;;;;0.40;0.27;;;23.70;99.90;;;;;;5015861;28;20999;-70
2023/08/02 10:36:11;;;;;;;0.53;0.20;;;24.40;99.90;;;;;;5015058;28;20470;-70
2023/08/02 10:38:49;;;;;;;0.40;0.30;;;25.10;98.40;;;;;;5014411;28;20538;-70
2023/08/02 10:41:17;;;;;;;0.30;0.20;;;25.70;96.60;;;;;;5013815;28;20466;-70
2023/08/02 10:44:14;;;;;;;0.50;0.20;;;26.00;94.80;;;;;;5015006;28;20455;-70
2023/08/02 10:46:41;;;;;;;0.40;0.20;;;26.10;94.00;;;;;;5015481;28;20424;-70
2023/08/02 10:49:37;;;;;;;0.40;0.30;;;26.00;94.10;;;;;;5015116;28;20483;-70
2023/08/02 10:52:23;;;;;;;1.60;0.30;;;25.90;94.10;;;;;;5014635;28;20879;-69
2023/08/02 10:55:08;;;;;;;1.00;0.40;;;25.60;94.30;;;;;;5014671;28;20439;-70
2023/08/02 10:57:35;;;;;;;0.40;0.20;;;25.40;94.80;;;;;;5013410;28;20800;-70
2023/08/02 11:00:14;;;;;;;3.90;0.30;;;25.10;95.50;;;;;;5014343;28;20469;-71
2023/08/02 11:02:46;;;;;;;2.43;0.50;;;25.00;95.90;;;;;;5014247;28;20436;-69
2023/08/02 11:05:13;;;;;;;0.63;0.33;;;24.90;96.20;;;;;;5012988;28;20450;-70
2023/08/02 11:07:41;;;;;;;0.93;0.30;;;24.70;96.60;;;;;;5014272;28;20470;-70
2023/08/02 11:10:08;;;;;;;2.70;0.60;;;24.50;97.00;;;;;;5014156;28;20494;-68
2023/08/02 11:12:35;;;;;;;2.23;0.80;;;24.40;97.60;;;;;;5014244;28;20466;-69
2023/08/02 11:15:16;;;;;;;0.90;0.40;;;24.20;98.80;;;;;;5013907;28;20471;-69
2023/08/02 11:17:42;;;;;;;0.50;0.30;;;24.10;99.60;;;;;;5013056;28;20940;-70
2023/08/02 11:20:10;;;;;;;0.60;0.40;;;23.90;99.80;;;;;;5014212;28;20464;-69
2023/08/02 11:22:37;;;;;;;0.60;0.30;;;23.70;99.90;;;;;;5012988;28;20443;-70
2023/08/02 11:25:06;;;;;;;0.70;0.40;;;23.60;99.90;;;;;;5014140;28;20443;-69
2023/08/02 11:27:34;;;;;;;1.50;0.40;;;23.40;99.90;;;;;;5012728;28;20459;-70
2023/08/02 11:30:04;;;;;;;0.80;0.50;;;23.40;99.90;;;;;;5012769;28;20487;-70
2023/08/02 11:32:32;;;;;;;1.27;0.43;;;23.30;99.90;;;;;;5014580;28;20428;-69
2023/08/02 11:34:59;;;;;;;0.50;0.40;;;23.60;99.90;;;;;;5012236;28;20522;-69
2023/08/02 11:37:27;;;;;;;1.10;0.80;;;24.00;99.90;;;;;;5014107;28;20450;-69
2023/08/02 11:39:54;;;;;;;1.00;0.70;;;24.60;99.80;;;;;;5018059;28;20478;-69
2023/08/02 11:42:21;;;;;;;1.50;1.40;;;24.80;98.20;;;;;;5025929;28;20468;-69
2023/08/02 11:44:49;;;;;;;0.60;0.60;;;24.80;97.20;;;;;;5019070;28;20443;-69
2023/08/02 11:47:17;;;;;;;1.70;0.60;;;24.80;96.30;;;;;;5015935;28;20451;-69
2023/08/02 11:49:51;;;;;;;0.60;0.50;;;25.10;96.80;;;;;;5015721;28;20479;-70
2023/08/02 11:52:28;;;;;;;3.03;1.83;;;26.10;94.80;;;;;;5014660;28;20443;-70
2023/08/02 11:54:55;;;;;;;1.23;0.80;;;27.50;91.80;;;;;;5014534;28;20451;-70
2023/08/02 11:57:23;;;;;;;0.70;0.60;;;28.00;86.00;;;;;;5014144;28;20447;-70
2023/08/02 11:59:50;;;;;;;0.70;0.70;;;27.90;83.50;;;;;;5014118;28;20454;-70
2023/08/02 12:02:39;;;;;;;1.03;0.90;;;27.70;85.30;;;;;;5013785;28;20443;-70
2023/08/02 12:05:08;;;;;;;0.67;0.50;;;27.50;86.30;;;;;;5013739;28;20428;-70
2023/08/02 12:07:36;;;;;;;2.10;1.23;;;27.10;86.90;;;;;;5013825;28;20476;-70
2023/08/02 12:10:04;;;;;;;2.10;1.23;;;26.80;89.00;;;;;;5012532;28;20493;-70
2023/08/02 12:12:32;;;;;;;3.33;0.77;;;26.40;90.10;;;;;;5013517;28;20473;-69
2023/08/02 12:14:59;;;;;;;2.90;1.20;;;26.00;91.50;;;;;;5013292;28;20451;-68
2023/08/02 12:17:26;;;;;;;2.93;1.13;;;25.60;93.60;;;;;;5015106;28;20451;-66
2023/08/02 12:19:55;;;;;;;3.80;1.50;;;25.10;94.80;;;;;;5016043;28;20901;-67
2023/08/02 12:22:21;;;;;;;3.30;1.20;;;24.50;97.40;;;;;;5020368;28;20454;-67
2023/08/02 12:25:04;;;;;;;1.67;0.97;;;23.80;99.70;;;;;;5024910;28;20523;-69
2023/08/02 12:27:34;;;;;;;1.10;0.53;;;23.40;99.90;;;;;;5026742;28;20467;-69
2023/08/02 12:30:15;;;;;;;1.27;0.70;;;23.90;99.90;;;;;;5033008;28;20491;-69
2023/08/02 12:32:47;;;;;;;1.03;0.53;;;24.70;99.90;;;;;;5031864;28;20454;-70
2023/08/02 12:35:19;;;;;;;0.90;0.50;;;24.90;98.10;;;;;;5031816;28;20466;-69
2023/08/02 12:37:47;;;;;;;1.33;0.80;;;24.80;96.20;;;;;;5032630;28;20436;-70
2023/08/02 12:40:18;;;;;;;2.10;0.90;;;24.70;97.20;;;;;;5033420;28;20474;-70
2023/08/02 12:42:46;;;;;;;2.47;0.80;;;24.20;96.90;;;;;;5024014;28;20432;-68
2023/08/02 12:45:13;;;;;;;2.47;1.03;;;23.90;97.80;;;;;;5020655;28;20462;-69
2023/08/02 12:47:41;;;;;;;0.97;0.80;;;23.70;99.00;;;;;;5022993;28;20486;-69
2023/08/02 12:50:09;;;;;;;1.40;1.20;;;23.90;99.30;;;;;;5023701;28;20494;-69